Time;durP1;ratioP1;P1;durP2;ratioP2;P2;SDS_P1;SDS_P2;PMS_P1;PMS_P2;Temp;Humidity;BMP_temperature;BMP_pressure;BME280_temperature;BME280_humidity;BME280_pressure;Samples;Min_cycle;Max_cycle;Signal;HPM_P1;HPM_P2
2021/12/02 00:01:22;;;;;;;12.25;3.67;;;;;;;5.90;84.56;96529.53;1774752;80;20975;-40
2021/12/02 00:03:49;;;;;;;5.20;3.50;;;;;;;5.94;84.74;96534.84;1774901;81;21010;-42
2021/12/02 00:06:18;;;;;;;6.95;3.37;;;;;;;5.95;84.44;96532.16;1774984;81;20963;-41
2021/12/02 00:08:47;;;;;;;6.25;3.70;;;;;;;5.95;84.41;96539.13;1774812;79;20979;-41
2021/12/02 00:11:13;;;;;;;5.00;3.52;;;;;;;5.92;84.59;96525.84;1774770;79;21014;-42
2021/12/02 00:13:56;;;;;;;6.35;3.90;;;;;;;5.97;84.59;96534.64;1774939;81;21444;-41
2021/12/02 00:16:29;;;;;;;6.75;3.55;;;;;;;5.91;84.40;96529.41;1774220;80;21428;-42
2021/12/02 00:21:23;;;;;;;4.28;3.10;;;;;;;5.99;84.23;96531.43;1774831;81;20940;-41
2021/12/02 00:24:08;;;;;;;4.37;3.00;;;;;;;5.99;84.19;96528.82;1774688;79;20979;-41
2021/12/02 00:26:37;;;;;;;4.75;3.27;;;;;;;6.03;84.15;96530.22;1774708;81;20987;-41
2021/12/02 00:29:07;;;;;;;5.65;3.33;;;;;;;6.04;83.87;96525.82;1774736;81;21119;-41
2021/12/02 00:31:37;;;;;;;4.92;3.40;;;;;;;6.04;83.82;96533.20;1774765;81;20982;-41
2021/12/02 00:34:09;;;;;;;7.60;3.42;;;;;;;6.06;83.81;96527.38;1774779;81;20987;-40
2021/12/02 00:36:37;;;;;;;3.40;3.00;;;;;;;6.08;83.64;96526.77;1774837;80;20955;-42
2021/12/02 00:39:15;;;;;;;5.60;3.52;;;;;;;6.03;83.42;96530.70;1774813;81;21107;-41
2021/12/02 00:41:43;;;;;;;6.20;3.52;;;;;;;6.03;83.61;96526.80;1774728;81;20983;-40
2021/12/02 00:44:11;;;;;;;6.53;2.98;;;;;;;6.09;83.63;96531.05;1774828;81;21457;-41
2021/12/02 00:46:38;;;;;;;4.25;3.40;;;;;;;6.02;83.55;96532.49;1774706;79;21445;-41
2021/12/02 00:49:13;;;;;;;5.80;3.70;;;;;;;6.05;83.60;96543.14;1774790;79;21046;-42
2021/12/02 00:51:42;;;;;;;8.85;3.05;;;;;;;6.05;83.46;96532.70;1774759;81;21014;-42
2021/12/02 00:54:10;;;;;;;6.97;3.27;;;;;;;6.03;83.21;96515.88;1774760;81;20987;-41
2021/12/02 00:56:38;;;;;;;4.12;3.05;;;;;;;6.03;83.18;96525.00;1774755;81;20970;-40
2021/12/02 00:59:05;;;;;;;5.35;2.95;;;;;;;6.02;82.97;96519.91;1774842;79;20978;-42
2021/12/02 01:01:36;;;;;;;4.28;2.87;;;;;;;6.07;83.07;96514.66;1774877;81;20975;-43
2021/12/02 01:04:07;;;;;;;4.25;2.40;;;;;;;6.08;83.04;96525.46;1773720;81;20990;-41
2021/12/02 01:06:33;;;;;;;5.30;3.10;;;;;;;6.04;83.04;96537.11;1771970;81;21491;-41
2021/12/02 01:08:59;;;;;;;3.25;2.90;;;;;;;6.10;82.99;96535.30;1774765;80;20959;-41
2021/12/02 01:11:25;;;;;;;5.03;2.70;;;;;;;6.11;82.86;96538.27;1774752;81;20986;-40
2021/12/02 01:13:51;;;;;;;3.08;2.62;;;;;;;6.06;82.85;96528.67;1774750;81;20936;-41
2021/12/02 01:16:19;;;;;;;4.05;2.80;;;;;;;6.07;82.93;96537.33;1774719;80;20927;-42
2021/12/02 01:18:45;;;;;;;2.98;2.50;;;;;;;6.08;82.87;96533.78;1774778;79;20971;-42
2021/12/02 01:21:16;;;;;;;4.22;2.60;;;;;;;6.05;82.76;96527.01;1774683;81;20979;-41
2021/12/02 01:23:44;;;;;;;3.33;2.58;;;;;;;6.08;82.65;96524.64;1774688;81;20970;-42
2021/12/02 01:26:14;;;;;;;5.05;2.20;;;;;;;6.02;82.60;96523.81;1774681;81;21417;-43
2021/12/02 01:28:41;;;;;;;3.42;2.50;;;;;;;5.99;82.63;96519.69;1774747;79;20979;-42
2021/12/02 01:31:07;;;;;;;3.15;2.55;;;;;;;6.02;82.72;96517.30;1748807;81;20978;-42
2021/12/02 01:33:35;;;;;;;5.45;2.92;;;;;;;5.98;82.75;96518.02;1774661;81;20971;-42
2021/12/02 01:36:03;;;;;;;3.72;2.72;;;;;;;6.03;82.89;96518.48;1774675;79;20986;-41
2021/12/02 01:38:31;;;;;;;3.22;2.42;;;;;;;6.04;82.68;96525.37;1774710;81;21821;-41
2021/12/02 01:41:00;;;;;;;5.12;2.72;;;;;;;6.06;82.82;96524.77;1748596;81;21033;-43
2021/12/02 01:43:53;;;;;;;4.90;3.02;;;;;;;6.05;82.90;96526.19;1774629;81;20990;-42
2021/12/02 01:46:23;;;;;;;4.15;2.70;;;;;;;6.07;82.92;96526.41;1748475;81;21128;-41
2021/12/02 01:49:03;;;;;;;4.45;3.17;;;;;;;6.07;82.77;96522.48;1766008;81;20998;-42
2021/12/02 01:51:31;;;;;;;5.35;3.17;;;;;;;6.04;82.67;96524.52;1763227;80;21555;-41
2021/12/02 01:54:07;;;;;;;6.25;2.98;;;;;;;6.09;82.74;96524.52;1763715;80;20971;-42
2021/12/02 01:56:46;;;;;;;6.75;3.17;;;;;;;6.10;82.73;96522.73;1763536;80;20971;-42
2021/12/02 01:59:22;;;;;;;4.70;3.42;;;;;;;6.13;82.73;96528.53;1763612;81;20971;-41
2021/12/02 02:01:51;;;;;;;6.10;3.45;;;;;;;6.17;82.79;96531.72;1763555;80;20983;-42
2021/12/02 02:04:20;;;;;;;5.03;3.45;;;;;;;6.22;82.79;96533.94;1763610;81;20976;-43
2021/12/02 02:07:06;;;;;;;5.42;3.30;;;;;;;6.15;82.73;96522.70;1763597;80;21006;-41
2021/12/02 02:09:34;;;;;;;4.23;3.17;;;;;;;6.20;82.83;96536.67;1763914;81;21023;-42
2021/12/02 02:12:10;;;;;;;5.90;3.20;;;;;;;6.18;82.34;96529.93;1763606;80;20959;-42
2021/12/02 02:14:39;;;;;;;4.92;2.67;;;;;;;6.23;82.55;96518.16;1763824;81;20972;-42
2021/12/02 02:17:18;;;;;;;2.98;2.40;;;;;;;6.29;82.10;96522.04;1763583;81;20979;-47
2021/12/02 02:19:36;;;;;;;3.98;2.45;;;;;;;6.34;81.88;96522.50;1762276;81;20936;-41
2021/12/02 02:22:03;;;;;;;5.45;2.60;;;;;;;6.33;81.53;96516.45;1763470;80;20947;-42
2021/12/02 02:24:30;;;;;;;3.02;2.30;;;;;;;6.33;81.33;96522.13;1763815;80;21034;-42
2021/12/02 02:26:56;;;;;;;4.62;2.87;;;;;;;6.32;80.68;96524.41;1763607;81;21023;-41
2021/12/02 02:29:22;;;;;;;3.60;2.17;;;;;;;6.40;81.17;96521.98;1763596;81;21603;-41
2021/12/02 02:31:49;;;;;;;3.83;2.47;;;;;;;6.43;80.63;96523.04;1763485;81;20959;-40
2021/12/02 02:34:15;;;;;;;5.30;2.50;;;;;;;6.47;80.68;96521.82;1763773;81;21026;-40
2021/12/02 02:36:55;;;;;;;5.05;2.65;;;;;;;6.46;80.49;96525.41;1763820;81;21496;-42
2021/12/02 02:39:21;;;;;;;4.85;2.45;;;;;;;6.46;80.31;96518.87;1763384;81;20967;-42
2021/12/02 02:43:25;;;;;;;3.42;2.22;;;;;;;6.38;79.79;96517.85;1800533;79;22971;-40
2021/12/02 02:45:51;;;;;;;2.65;2.08;;;;;;;6.37;80.04;96516.18;1760295;81;21114;-42
2021/12/02 02:48:17;;;;;;;2.08;1.87;;;;;;;6.26;79.97;96509.27;1760642;81;21547;-43
2021/12/02 02:50:43;;;;;;;3.75;2.27;;;;;;;6.26;80.12;96510.09;1760722;81;21050;-42
2021/12/02 02:53:19;;;;;;;4.03;2.10;;;;;;;6.23;79.84;96513.42;1760685;81;21027;-42
2021/12/02 02:58:52;;;;;;;2.58;1.80;;;;;;;6.12;79.53;96505.98;1761868;81;20982;-42
2021/12/02 03:06:36;;;;;;;2.00;1.80;;;;;;;6.13;78.75;96510.72;1659003;86;21030;-41
2021/12/02 03:09:06;;;;;;;1.92;1.70;;;;;;;6.13;78.77;96518.55;1659068;85;21039;-42
2021/12/02 03:11:39;;;;;;;3.02;1.90;;;;;;;6.13;78.69;96508.96;1659078;85;21651;-40
2021/12/02 03:13:58;;;;;;;2.20;2.00;;;;;;;6.12;78.67;96510.39;1659059;86;20971;-40
2021/12/02 03:19:07;;;;;;;2.47;1.85;;;;;;;6.07;78.26;96525.09;1659074;86;21026;-42
2021/12/02 03:21:33;;;;;;;2.62;1.80;;;;;;;5.98;78.58;96530.24;1659075;85;21043;-41
2021/12/02 03:24:01;;;;;;;1.82;1.57;;;;;;;6.01;78.77;96532.13;1659081;86;21066;-41
2021/12/02 03:26:29;;;;;;;3.47;1.60;;;;;;;5.93;78.85;96527.96;1659116;86;21559;-41
2021/12/02 03:28:55;;;;;;;3.42;1.87;;;;;;;5.95;78.92;96536.06;1659206;86;21540;-41
2021/12/02 03:31:22;;;;;;;3.50;1.90;;;;;;;5.92;78.93;96538.06;1658326;86;21602;-46
2021/12/02 03:33:49;;;;;;;2.22;1.70;;;;;;;5.93;79.00;96541.00;1659167;85;21075;-42
2021/12/02 03:36:17;;;;;;;2.50;1.77;;;;;;;5.96;78.94;96544.71;1659319;85;21113;-41
2021/12/02 03:38:44;;;;;;;2.45;1.72;;;;;;;5.94;78.55;96551.80;1659065;86;21050;-42
2021/12/02 03:41:10;;;;;;;4.55;1.50;;;;;;;5.89;77.92;96559.16;1659009;84;21010;-40
2021/12/02 03:43:42;;;;;;;3.25;1.70;;;;;;;5.95;78.05;96558.69;1684606;82;20972;-42
2021/12/02 03:46:11;;;;;;;3.67;1.55;;;;;;;5.95;78.05;96570.42;1748748;81;20965;-41
2021/12/02 03:48:37;;;;;;;2.77;1.80;;;;;;;5.92;77.80;96569.36;1748669;81;21016;-40
2021/12/02 03:51:05;;;;;;;2.30;1.70;;;;;;;5.86;77.37;96569.86;1748639;81;21003;-42
2021/12/02 03:53:31;;;;;;;1.62;1.32;;;;;;;5.90;77.35;96579.09;1748674;82;20996;-41
2021/12/02 03:55:56;;;;;;;2.35;1.47;;;;;;;5.81;77.15;96576.73;1748137;81;21039;-39
2021/12/02 03:58:22;;;;;;;2.22;1.65;;;;;;;5.81;77.33;96581.95;1748112;81;20972;-41
2021/12/02 04:00:48;;;;;;;1.80;1.50;;;;;;;5.81;77.43;96583.73;1748066;81;20988;-42
2021/12/02 04:03:14;;;;;;;6.10;1.30;;;;;;;5.76;77.20;96582.30;1748088;81;20984;-41
2021/12/02 04:05:40;;;;;;;2.15;1.42;;;;;;;5.82;77.40;96584.07;1748109;82;20999;-42
2021/12/02 04:08:10;;;;;;;2.05;1.37;;;;;;;5.80;77.47;96576.37;1747731;81;20999;-41
2021/12/02 04:10:34;;;;;;;2.90;1.30;;;;;;;5.74;77.51;96593.33;1747512;81;21032;-42
2021/12/02 04:13:17;;;;;;;2.12;1.27;;;;;;;5.79;77.45;96588.25;1748214;81;20996;-41
2021/12/02 04:15:39;;;;;;;1.20;1.05;;;;;;;5.79;77.20;96592.98;1747790;81;20979;-41
2021/12/02 04:18:04;;;;;;;1.92;1.47;;;;;;;5.73;77.04;96599.97;1748112;81;20991;-41
2021/12/02 04:20:30;;;;;;;1.87;1.52;;;;;;;5.70;76.45;96601.05;1748183;81;21043;-41
2021/12/02 04:22:57;;;;;;;1.07;0.98;;;;;;;5.72;76.45;96613.97;1748326;81;20989;-42
2021/12/02 04:25:24;;;;;;;1.13;1.03;;;;;;;5.70;76.46;96601.05;1748446;81;21020;-42
2021/12/02 04:27:51;;;;;;;1.07;0.98;;;;;;;5.68;76.42;96600.34;1748301;82;21026;-42
2021/12/02 04:30:22;;;;;;;1.90;0.95;;;;;;;5.67;76.26;96613.01;1748423;81;20995;-43
2021/12/02 04:32:48;;;;;;;1.30;1.20;;;;;;;5.65;75.46;96620.12;1746781;81;21008;-41
2021/12/02 04:35:15;;;;;;;1.32;0.82;;;;;;;5.65;75.43;96619.31;1748240;82;21523;-42
2021/12/02 04:37:43;;;;;;;1.55;0.70;;;;;;;5.63;74.09;96619.42;1748259;82;20984;-41
2021/12/02 04:40:14;;;;;;;1.62;0.95;;;;;;;5.60;73.14;96633.17;1748202;81;20998;-42
2021/12/02 04:42:39;;;;;;;0.98;0.85;;;;;;;5.58;73.14;96625.47;1754730;81;21015;-41
2021/12/02 04:45:06;;;;;;;0.90;0.80;;;;;;;5.57;73.24;96627.73;1761577;81;20983;-41
2021/12/02 04:47:31;;;;;;;0.98;0.98;;;;;;;5.51;72.52;96628.19;1761515;81;21540;-42
2021/12/02 04:49:57;;;;;;;1.10;0.70;;;;;;;5.49;72.73;96643.12;1761694;81;20991;-40
2021/12/02 04:52:23;;;;;;;2.12;0.55;;;;;;;5.37;71.25;96643.12;1761528;80;21172;-40
2021/12/02 04:54:49;;;;;;;0.60;0.50;;;;;;;5.43;71.99;96648.34;1761600;80;20968;-44
2021/12/02 04:57:15;;;;;;;2.10;0.70;;;;;;;5.34;71.04;96646.44;1761488;81;20987;-41
2021/12/02 04:59:40;;;;;;;0.60;0.50;;;;;;;5.39;71.95;96652.95;1761519;81;20991;-41
2021/12/02 05:02:06;;;;;;;0.45;0.45;;;;;;;5.36;71.50;96664.91;1761432;81;20988;-42
2021/12/02 05:04:32;;;;;;;0.98;0.72;;;;;;;5.33;70.91;96657.34;1761669;81;20975;-42
2021/12/02 05:06:58;;;;;;;0.90;0.60;;;;;;;5.34;70.82;96671.19;1761502;81;20987;-42
2021/12/02 05:09:23;;;;;;;0.72;0.72;;;;;;;5.33;70.64;96670.37;1761554;81;21027;-42
2021/12/02 05:11:50;;;;;;;2.75;0.60;;;;;;;5.19;69.72;96670.58;1761568;81;20995;-41
2021/12/02 05:14:15;;;;;;;1.12;0.60;;;;;;;5.22;70.52;96666.45;1761555;81;21616;-41
2021/12/02 05:16:41;;;;;;;0.93;0.60;;;;;;;5.20;70.81;96673.53;1761473;81;20989;-42
2021/12/02 05:19:08;;;;;;;2.10;0.50;;;;;;;5.20;70.69;96693.07;1761480;81;21027;-42
2021/12/02 05:21:33;;;;;;;1.00;0.90;;;;;;;5.10;70.21;96682.52;1761441;81;20992;-42
2021/12/02 05:23:59;;;;;;;5.05;1.77;;;;;;;5.07;70.42;96679.31;1761510;81;20988;-42
2021/12/02 05:26:27;;;;;;;2.30;1.37;;;;;;;4.98;70.02;96680.83;1761537;81;20988;-41
2021/12/02 05:28:54;;;;;;;1.87;1.25;;;;;;;4.94;69.95;96680.22;1761654;81;20991;-41
2021/12/02 05:31:21;;;;;;;2.95;1.10;;;;;;;4.92;69.81;96686.02;1761583;81;21048;-41
2021/12/02 05:33:47;;;;;;;1.55;0.85;;;;;;;4.87;69.17;96687.30;1761640;81;20991;-43
2021/12/02 05:36:13;;;;;;;2.20;0.80;;;;;;;4.86;68.48;96696.91;1761484;81;20963;-42
2021/12/02 05:38:40;;;;;;;1.87;0.70;;;;;;;4.88;69.47;96685.89;1761473;81;20976;-41
2021/12/02 05:41:07;;;;;;;1.55;0.70;;;;;;;4.83;68.85;96690.61;1761511;81;21552;-41
2021/12/02 05:43:33;;;;;;;4.80;1.40;;;;;;;4.78;68.63;96693.56;1760544;81;21094;-43
2021/12/02 05:46:00;;;;;;;0.93;0.82;;;;;;;4.78;68.63;96703.98;1760814;81;21015;-41
2021/12/02 05:48:26;;;;;;;3.08;0.85;;;;;;;4.74;68.76;96700.39;1761263;81;21023;-43
2021/12/02 05:50:52;;;;;;;2.15;0.65;;;;;;;4.60;68.18;96713.95;1760352;81;21558;-42
2021/12/02 05:53:18;;;;;;;3.45;1.00;;;;;;;4.66;69.22;96711.83;1761334;80;20979;-42
2021/12/02 05:55:45;;;;;;;1.80;0.70;;;;;;;4.58;68.87;96721.05;1761398;81;20999;-41
2021/12/02 05:58:12;;;;;;;2.05;0.82;;;;;;;4.56;69.14;96721.60;1761609;81;21033;-41
2021/12/02 06:00:38;;;;;;;2.22;0.78;;;;;;;4.52;69.03;96725.38;1761510;81;21038;-41
2021/12/02 06:03:04;;;;;;;1.50;0.80;;;;;;;4.49;69.20;96720.38;1761567;81;21030;-41
2021/12/02 06:05:30;;;;;;;3.05;0.60;;;;;;;4.50;69.61;96736.38;1761385;81;20995;-40
2021/12/02 06:07:58;;;;;;;0.55;0.55;;;;;;;4.42;68.69;96741.28;1760546;80;21069;-42
2021/12/02 06:10:25;;;;;;;1.92;1.07;;;;;;;4.43;68.77;96745.55;1761596;81;20991;-41
2021/12/02 06:12:51;;;;;;;5.28;1.50;;;;;;;4.43;69.10;96744.25;1761458;81;21034;-42
2021/12/02 06:15:18;;;;;;;2.52;1.20;;;;;;;4.42;68.98;96741.28;1761340;81;20959;-42
2021/12/02 06:17:44;;;;;;;5.22;0.95;;;;;;;4.43;69.28;96744.25;1761441;81;21502;-41
2021/12/02 06:20:12;;;;;;;2.17;1.17;;;;;;;4.35;68.80;96741.38;1761111;81;21034;-42
2021/12/02 06:22:39;;;;;;;2.05;1.00;;;;;;;4.33;68.86;96749.30;1761403;81;20995;-40
2021/12/02 06:27:44;;;;;;;1.92;1.20;;;;;;;4.25;68.78;96758.57;1761410;81;20948;-40
2021/12/02 06:30:13;;;;;;;1.82;1.20;;;;;;;4.20;68.49;96758.88;1761402;81;21461;-40
2021/12/02 06:32:39;;;;;;;2.33;1.30;;;;;;;4.20;68.94;96749.77;1761408;81;20963;-42
2021/12/02 06:35:06;;;;;;;1.10;1.00;;;;;;;4.19;68.80;96763.73;1761393;81;20983;-41
2021/12/02 06:37:32;;;;;;;;;;;;;;;4.25;69.20;96759.88;1763980;81;21495;-42
2021/12/02 06:39:58;;;;;;;2.33;0.80;;;;;;;4.20;68.40;96761.48;1761365;81;20112;-41
2021/12/02 06:42:24;;;;;;;2.15;1.00;;;;;;;4.19;68.08;96759.36;1761272;80;21485;-41
2021/12/02 06:44:49;;;;;;;2.22;1.00;;;;;;;4.24;68.50;96759.05;1761487;81;20972;-41
2021/12/02 06:47:15;;;;;;;2.35;0.80;;;;;;;4.22;67.86;96758.30;1760997;81;21027;-41
2021/12/02 06:49:41;;;;;;;4.47;0.90;;;;;;;4.19;67.78;96773.66;1760162;81;21253;-41
2021/12/02 06:52:13;;;;;;;3.08;1.15;;;;;;;4.17;67.78;96776.02;1760208;81;21555;-42
2021/12/02 06:54:40;;;;;;;3.37;0.80;;;;;;;4.19;68.10;96765.03;1761418;81;21039;-42
2021/12/02 06:57:07;;;;;;;2.15;1.17;;;;;;;4.11;67.55;96756.48;1761641;81;21003;-41
2021/12/02 06:59:33;;;;;;;2.17;1.02;;;;;;;4.15;67.95;96770.92;1761463;81;21472;-41
2021/12/02 07:01:59;;;;;;;2.92;1.20;;;;;;;4.15;68.39;96768.80;1761288;81;21159;-40
2021/12/02 07:04:25;;;;;;;2.55;1.25;;;;;;;4.09;67.95;96771.33;1761425;81;21007;-40
2021/12/02 07:06:51;;;;;;;3.75;1.30;;;;;;;4.10;67.79;96774.30;1761402;81;20963;-49
2021/12/02 07:09:17;;;;;;;1.77;1.10;;;;;;;4.15;68.02;96782.63;1761358;81;20983;-41
2021/12/02 07:11:43;;;;;;;4.45;1.47;;;;;;;4.18;68.35;96775.92;1761350;81;21070;-43
2021/12/02 07:14:14;;;;;;;3.37;1.67;;;;;;;4.20;68.52;96794.00;1761342;81;20998;-41
2021/12/02 07:16:39;;;;;;;4.42;1.57;;;;;;;4.25;68.08;96783.28;1760972;81;20983;-40
2021/12/02 07:19:10;;;;;;;2.47;1.23;;;;;;;4.25;68.02;96790.61;1761683;81;21510;-40
2021/12/02 07:21:39;;;;;;;2.30;1.40;;;;;;;4.26;68.03;96807.05;1761335;81;21043;-42
2021/12/02 07:24:08;;;;;;;4.40;1.95;;;;;;;4.22;67.84;96808.58;1761360;81;21522;-40
2021/12/02 07:26:41;;;;;;;3.72;1.50;;;;;;;4.22;68.22;96805.98;1761364;81;20984;-42
2021/12/02 07:29:10;;;;;;;4.37;1.47;;;;;;;4.18;68.09;96804.53;1761447;81;21011;-39
2021/12/02 07:31:39;;;;;;;4.30;1.75;;;;;;;4.20;68.19;96799.20;1761317;81;21026;-40
2021/12/02 07:34:05;;;;;;;4.40;1.65;;;;;;;4.17;68.37;96800.73;1761633;81;21468;-43
2021/12/02 07:36:33;;;;;;;3.85;1.47;;;;;;;4.20;68.42;96807.86;1761786;81;21478;-43
2021/12/02 07:39:07;;;;;;;1.90;1.30;;;;;;;4.17;68.67;96811.96;1761676;81;21011;-43
2021/12/02 07:41:33;;;;;;;3.60;1.40;;;;;;;4.13;68.51;96793.61;1761408;81;21039;-43
2021/12/02 07:43:59;;;;;;;5.95;1.50;;;;;;;4.22;68.59;96809.02;1761460;81;21012;-41
2021/12/02 07:46:25;;;;;;;4.92;1.40;;;;;;;4.26;68.25;96814.84;1761585;81;21524;-40
2021/12/02 07:48:52;;;;;;;5.83;1.50;;;;;;;4.29;68.46;96826.34;1761539;81;20971;-42
2021/12/02 07:51:20;;;;;;;4.75;1.60;;;;;;;4.30;68.24;96822.83;1761616;81;20999;-42
2021/12/02 07:53:48;;;;;;;2.75;1.32;;;;;;;4.29;68.06;96819.84;1761586;81;21464;-42
2021/12/02 07:56:17;;;;;;;1.90;1.10;;;;;;;4.34;68.30;96844.61;1761456;81;20995;-42
2021/12/02 07:58:46;;;;;;;3.83;1.10;;;;;;;4.35;67.26;96860.59;1761471;81;20979;-41
2021/12/02 08:01:13;;;;;;;3.42;1.20;;;;;;;4.41;67.52;96856.25;1761266;81;20999;-41
2021/12/02 08:03:44;;;;;;;4.08;1.22;;;;;;;4.44;67.62;96863.03;1761581;80;21042;-41
2021/12/02 08:06:08;;;;;;;2.02;1.30;;;;;;;4.44;67.75;96864.34;1761215;81;20987;-41
2021/12/02 08:08:33;;;;;;;1.65;1.12;;;;;;;4.51;67.86;96869.92;1761428;81;21507;-43
2021/12/02 08:10:59;;;;;;;3.65;1.32;;;;;;;4.51;67.64;96872.08;1761531;81;21537;-41
2021/12/02 08:13:30;;;;;;;1.87;1.05;;;;;;;4.58;68.35;96881.58;1761579;81;21807;-40
2021/12/02 08:15:52;;;;;;;;;;;;;;;4.65;68.26;96872.88;1763616;81;20979;-40
2021/12/02 08:18:18;;;;;;;4.35;1.55;;;;;;;4.58;68.02;96878.52;1761505;81;20112;-40
2021/12/02 08:20:44;;;;;;;4.42;1.57;;;;;;;4.66;68.42;96879.73;1761444;80;21038;-42
2021/12/02 08:23:10;;;;;;;9.88;1.60;;;;;;;4.75;68.33;96872.12;1761370;81;20980;-42
2021/12/02 08:25:35;;;;;;;5.08;1.80;;;;;;;4.85;68.34;96868.39;1761435;81;21034;-41
2021/12/02 08:28:02;;;;;;;5.97;1.75;;;;;;;4.95;68.15;96873.80;1761413;81;21026;-41
2021/12/02 08:30:33;;;;;;;3.10;1.45;;;;;;;5.07;68.09;96877.28;1761682;81;21003;-44
2021/12/02 08:32:59;;;;;;;5.08;1.42;;;;;;;5.13;67.58;96891.16;1761467;80;20994;-42
2021/12/02 08:35:26;;;;;;;2.70;1.12;;;;;;;5.10;66.90;96875.30;1761420;81;20967;-40
2021/12/02 08:37:55;;;;;;;4.15;1.20;;;;;;;5.04;66.59;96873.14;1761519;81;21014;-43
2021/12/02 08:40:30;;;;;;;3.58;1.30;;;;;;;4.90;66.34;96901.45;1761314;81;20998;-43
2021/12/02 08:42:51;;;;;;;2.65;1.27;;;;;;;4.92;66.85;96898.27;1760626;80;21465;-43
2021/12/02 08:45:16;;;;;;;2.40;1.30;;;;;;;4.97;67.05;96900.08;1761511;81;21035;-42
2021/12/02 08:47:45;;;;;;;4.92;1.30;;;;;;;5.04;66.70;96908.75;1761428;81;21030;-41
2021/12/02 08:50:18;;;;;;;2.33;1.45;;;;;;;4.98;66.63;96896.55;1761421;81;21007;-43
2021/12/02 08:52:47;;;;;;;5.12;1.30;;;;;;;4.93;66.62;96897.34;1761412;81;20979;-42
2021/12/02 08:55:14;;;;;;;4.55;1.62;;;;;;;4.84;66.78;96905.80;1761726;81;21007;-40
2021/12/02 08:57:40;;;;;;;4.45;1.45;;;;;;;4.93;66.92;96913.42;1761531;81;20998;-41
2021/12/02 09:00:09;;;;;;;2.25;1.20;;;;;;;4.84;66.75;96896.69;1761472;81;21508;-42
2021/12/02 09:02:35;;;;;;;3.50;1.35;;;;;;;4.81;66.71;96937.26;1761366;81;20982;-42
2021/12/02 09:05:01;;;;;;;2.05;1.27;;;;;;;4.81;67.04;96913.83;1761379;81;21042;-41
2021/12/02 09:07:27;;;;;;;2.85;0.98;;;;;;;4.83;67.11;96909.81;1761436;81;20982;-41
2021/12/02 09:09:52;;;;;;;4.60;1.32;;;;;;;4.81;67.17;96933.35;1761480;81;21426;-42
2021/12/02 09:12:18;;;;;;;4.22;1.60;;;;;;;4.75;67.09;96924.67;1761550;81;21507;-42
2021/12/02 09:14:44;;;;;;;5.08;1.70;;;;;;;4.76;67.45;96912.00;1761469;81;21480;-42
2021/12/02 09:17:10;;;;;;;4.83;1.62;;;;;;;4.77;67.82;96907.17;1761396;81;21182;-43
2021/12/02 09:19:36;;;;;;;4.67;1.60;;;;;;;4.77;67.08;96924.09;1761336;81;20971;-43
2021/12/02 09:22:02;;;;;;;5.00;1.72;;;;;;;4.76;66.63;96932.83;1761374;81;21018;-42
2021/12/02 09:24:28;;;;;;;3.83;1.40;;;;;;;4.75;66.09;96927.28;1761388;81;20999;-43
2021/12/02 09:26:55;;;;;;;4.15;1.42;;;;;;;4.70;66.00;96894.22;1761402;81;21046;-43
2021/12/02 09:29:22;;;;;;;3.70;1.40;;;;;;;4.66;65.62;96925.28;1761768;81;21540;-43
2021/12/02 09:31:50;;;;;;;2.67;1.22;;;;;;;4.68;65.89;96926.04;1761566;81;21002;-42
2021/12/02 09:34:16;;;;;;;3.47;1.32;;;;;;;4.66;65.25;96930.50;1761500;81;21637;-41
2021/12/02 09:36:43;;;;;;;2.47;1.40;;;;;;;4.63;64.98;96933.33;1761443;81;21633;-42
2021/12/02 09:39:11;;;;;;;3.52;1.52;;;;;;;4.65;65.26;96927.55;1761532;80;21054;-40
2021/12/02 09:41:37;;;;;;;3.02;1.30;;;;;;;4.67;65.72;96916.55;1761438;80;20956;-42
2021/12/02 09:44:04;;;;;;;6.85;1.60;;;;;;;4.60;65.14;96923.94;1761396;81;21023;-44
2021/12/02 09:46:32;;;;;;;4.90;1.40;;;;;;;4.72;65.81;96928.78;1761469;81;21011;-41
2021/12/02 09:49:03;;;;;;;3.85;1.20;;;;;;;4.69;65.50;96927.69;1760625;81;21030;-42
2021/12/02 09:51:33;;;;;;;2.72;1.10;;;;;;;4.73;65.20;96922.63;1760268;81;21078;-42
2021/12/02 09:54:05;;;;;;;5.92;1.45;;;;;;;4.82;65.32;96951.95;1759650;81;21054;-43
2021/12/02 09:56:34;;;;;;;2.80;1.20;;;;;;;4.84;65.42;96927.94;1757499;81;21058;-42
2021/12/02 09:59:13;;;;;;;3.67;1.72;;;;;;;4.87;65.17;96939.91;1760675;81;21038;-41
2021/12/02 10:01:41;;;;;;;5.45;1.50;;;;;;;4.86;65.59;96940.38;1759011;81;21639;-43
2021/12/02 10:04:05;;;;;;;4.25;1.40;;;;;;;4.86;64.77;96933.87;1760345;81;20972;-41
2021/12/02 10:06:32;;;;;;;4.17;1.70;;;;;;;4.91;64.85;96934.39;1759984;80;21516;-41
2021/12/02 10:09:27;;;;;;;4.12;1.65;;;;;;;4.98;64.52;96940.83;1760966;81;21010;-42
2021/12/02 10:11:56;;;;;;;5.50;1.20;;;;;;;5.05;64.34;96939.08;1755045;81;21098;-41
2021/12/02 10:14:30;;;;;;;5.62;1.42;;;;;;;5.05;63.72;96959.92;1743660;81;21033;-42
2021/12/02 10:17:20;;;;;;;2.70;1.40;;;;;;;5.06;63.40;96943.34;1743743;82;21068;-42
2021/12/02 10:20:21;;;;;;;4.33;1.07;;;;;;;4.95;62.20;96954.53;1743389;82;20982;-41
2021/12/02 10:23:06;;;;;;;2.83;1.42;;;;;;;4.94;62.14;96957.59;1743073;81;20971;-43
2021/12/02 10:25:34;;;;;;;3.33;1.50;;;;;;;5.00;62.80;96951.97;1743928;82;20994;-42
2021/12/02 10:28:09;;;;;;;6.72;1.30;;;;;;;5.06;62.68;96948.55;1743980;82;21460;-42
2021/12/02 10:30:42;;;;;;;3.30;1.50;;;;;;;5.00;61.47;96953.27;1744009;82;20963;-42
2021/12/02 10:33:09;;;;;;;2.58;1.10;;;;;;;5.03;60.95;96952.21;1743984;82;21547;-42
2021/12/02 10:35:39;;;;;;;5.42;1.50;;;;;;;5.07;61.38;96959.34;1744239;82;20986;-41
2021/12/02 10:38:05;;;;;;;3.77;1.47;;;;;;;5.07;60.65;96971.89;1743978;82;20990;-40
2021/12/02 10:40:33;;;;;;;3.72;1.22;;;;;;;5.08;61.34;96962.32;1743979;82;20991;-41
2021/12/02 10:43:08;;;;;;;2.65;1.22;;;;;;;5.02;60.57;96966.19;1743894;81;21499;-42
2021/12/02 10:45:34;;;;;;;3.58;1.45;;;;;;;5.02;59.66;96980.97;1738570;82;21011;-43
2021/12/02 10:48:00;;;;;;;2.22;1.02;;;;;;;4.90;58.97;96975.67;1738454;82;20982;-43
2021/12/02 10:50:27;;;;;;;2.70;1.10;;;;;;;4.94;58.87;96964.58;1738489;81;20983;-42
2021/12/02 10:52:54;;;;;;;;;;;;;;;4.90;58.62;96973.08;1714141;82;20990;-39
2021/12/02 10:55:22;;;;;;;3.73;1.47;;;;;;;4.89;58.78;96971.39;1738786;82;20147;-43
2021/12/02 10:57:55;;;;;;;3.02;0.98;;;;;;;4.83;57.58;96973.61;1738448;82;21492;-41
2021/12/02 11:00:31;;;;;;;3.08;1.27;;;;;;;4.88;58.15;96970.23;1738587;82;20955;-42
2021/12/02 11:03:00;;;;;;;3.00;1.07;;;;;;;4.81;57.76;96990.64;1738447;81;21034;-41
2021/12/02 11:05:31;;;;;;;3.22;0.90;;;;;;;4.74;57.51;96979.80;1711568;82;21034;-41
2021/12/02 11:08:04;;;;;;;6.03;1.00;;;;;;;4.81;57.75;96984.13;1738623;82;20982;-40
2021/12/02 11:10:41;;;;;;;2.02;0.98;;;;;;;4.79;56.99;96987.31;1738829;82;20975;-40
2021/12/02 11:13:12;;;;;;;1.37;0.90;;;;;;;4.68;55.81;96982.84;1737831;82;20970;-40
2021/12/02 11:15:39;;;;;;;4.15;1.30;;;;;;;4.74;56.84;96983.70;1738655;82;20961;-42
2021/12/02 11:18:10;;;;;;;2.35;1.30;;;;;;;4.76;57.07;96998.75;1738825;82;21491;-41
2021/12/02 11:20:42;;;;;;;4.83;1.45;;;;;;;4.81;57.20;96992.77;1738638;82;21034;-42
2021/12/02 11:23:27;;;;;;;5.72;1.10;;;;;;;4.82;56.79;96991.02;1738811;82;21002;-41
2021/12/02 11:26:07;;;;;;;2.52;1.30;;;;;;;4.87;57.68;96994.11;1739538;81;21034;-41
2021/12/02 11:28:38;;;;;;;1.98;1.00;;;;;;;4.89;57.66;96992.70;1738139;82;21484;-44
2021/12/02 11:31:18;;;;;;;3.80;1.07;;;;;;;4.87;57.23;97012.34;1738705;81;21376;-42
2021/12/02 11:33:46;;;;;;;1.95;0.95;;;;;;;4.88;57.78;96991.06;1738662;82;21368;-43
2021/12/02 11:36:26;;;;;;;3.55;1.00;;;;;;;4.88;56.65;97005.38;1738215;81;21010;-45
2021/12/02 11:38:57;;;;;;;4.42;1.20;;;;;;;4.78;55.74;96990.84;1738470;82;21018;-40
2021/12/02 11:41:24;;;;;;;2.65;1.40;;;;;;;4.81;55.96;97014.08;1738565;82;21077;-42
2021/12/02 11:43:50;;;;;;;1.00;0.80;;;;;;;4.83;56.04;97004.38;1738089;82;21854;-41
2021/12/02 11:46:17;;;;;;;4.08;1.07;;;;;;;4.78;54.64;97010.38;1732920;81;21046;-42
2021/12/02 11:48:44;;;;;;;4.62;1.10;;;;;;;4.76;54.60;97017.45;1732440;81;21516;-43
2021/12/02 11:51:20;;;;;;;3.75;1.00;;;;;;;4.80;54.82;97017.60;1732242;83;21531;-42
2021/12/02 11:53:46;;;;;;;4.35;1.50;;;;;;;4.83;55.78;97020.48;1733396;81;21018;-41
2021/12/02 11:56:17;;;;;;;3.45;1.30;;;;;;;4.86;54.73;97048.90;1733316;81;21006;-41
2021/12/02 11:58:43;;;;;;;2.75;1.17;;;;;;;4.81;55.08;97031.00;1733480;83;21054;-43
2021/12/02 12:01:22;;;;;;;4.55;1.20;;;;;;;4.75;54.12;97039.24;1733356;81;20959;-43
2021/12/02 12:04:03;;;;;;;1.55;0.90;;;;;;;4.74;54.60;97040.16;1733375;83;21594;-43
2021/12/02 12:06:33;;;;;;;3.83;1.45;;;;;;;4.76;55.30;97040.89;1733235;81;21034;-42